createdAt,value
2023-04-10T00:00:46.570Z,99.99
2023-04-10T00:01:46.621Z,99.99
2023-04-10T00:02:46.766Z,99.99
2023-04-10T00:03:46.650Z,99.99
2023-04-10T00:04:46.657Z,99.99
2023-04-10T00:05:46.524Z,99.99
2023-04-10T00:06:46.521Z,99.99
2023-04-10T00:07:46.504Z,99.99
2023-04-10T00:08:46.497Z,99.99
2023-04-10T00:09:46.498Z,99.99
2023-04-10T00:10:46.479Z,99.99
2023-04-10T00:11:46.474Z,99.99
2023-04-10T00:12:46.464Z,99.99
2023-04-10T00:13:46.458Z,99.99
2023-04-10T00:14:46.449Z,99.99
2023-04-10T00:15:46.449Z,99.99
2023-04-10T00:16:46.493Z,99.99
2023-04-10T00:17:46.442Z,99.99
2023-04-10T00:18:46.412Z,99.99
2023-04-10T00:19:46.407Z,99.99
2023-04-10T00:20:46.402Z,99.99
2023-04-10T00:21:46.401Z,99.99
2023-04-10T00:22:46.376Z,99.99
2023-04-10T00:23:46.388Z,99.99
2023-04-10T00:24:46.360Z,99.99
2023-04-10T00:25:46.356Z,99.99
2023-04-10T00:26:46.352Z,99.99
2023-04-10T00:27:46.347Z,99.99
2023-04-10T00:28:46.330Z,99.99
2023-04-10T00:29:46.313Z,99.99
2023-04-10T00:30:46.311Z,99.99
2023-04-10T00:31:46.365Z,99.99
2023-04-10T00:32:46.348Z,99.99
2023-04-10T00:33:46.291Z,99.99
2023-04-10T00:34:46.277Z,99.99
2023-04-10T00:35:46.288Z,99.99
2023-04-10T00:36:46.262Z,99.99
2023-04-10T00:37:46.276Z,99.99
2023-04-10T00:38:46.243Z,99.99
2023-04-10T00:39:46.241Z,99.99
2023-04-10T00:40:46.236Z,99.99
2023-04-10T00:41:46.235Z,99.99
2023-04-10T00:42:46.215Z,99.99
2023-04-10T00:43:46.204Z,99.99
2023-04-10T00:44:46.198Z,99.99
2023-04-10T00:45:46.219Z,99.99
2023-04-10T00:46:46.184Z,99.99
2023-04-10T00:47:46.189Z,99.99
2023-04-10T00:48:46.182Z,99.99
2023-04-10T00:49:46.155Z,99.99
2023-04-10T00:50:46.152Z,99.99
2023-04-10T00:51:46.140Z,99.99
2023-04-10T00:52:46.136Z,99.99
2023-04-10T00:53:46.126Z,99.99
2023-04-10T00:54:46.115Z,99.99
2023-04-10T00:55:46.124Z,99.99
2023-04-10T00:56:46.100Z,99.99
2023-04-10T00:57:46.091Z,99.99
2023-04-10T00:58:46.087Z,99.99
2023-04-10T00:59:46.083Z,99.99
2023-04-10T01:00:46.072Z,99.99
2023-04-10T01:01:46.126Z,99.99
2023-04-10T01:02:46.238Z,99.99
2023-04-10T01:03:46.210Z,99.99
2023-04-10T01:04:46.034Z,99.99
2023-04-10T01:05:46.021Z,99.99
2023-04-10T01:06:46.013Z,99.99
2023-04-10T01:07:46.008Z,99.99
2023-04-10T01:08:46.006Z,99.99
2023-04-10T01:09:45.989Z,99.99
2023-04-10T01:10:46.004Z,99.99
2023-04-10T01:11:45.980Z,99.99
2023-04-10T01:12:45.965Z,99.99
2023-04-10T01:13:45.960Z,99.99
2023-04-10T01:14:45.949Z,99.99
2023-04-10T01:15:45.945Z,99.99
2023-04-10T01:16:45.951Z,99.99
2023-04-10T01:17:46.031Z,99.99
2023-04-10T01:18:45.911Z,99.99
2023-04-10T01:19:45.903Z,99.99
2023-04-10T01:20:45.898Z,99.99
2023-04-10T01:21:45.888Z,99.99
2023-04-10T01:22:45.888Z,99.99
2023-04-10T01:23:45.875Z,99.99
2023-04-10T01:24:45.859Z,99.99
2023-04-10T01:25:45.851Z,99.99
2023-04-10T01:26:45.845Z,99.99
2023-04-10T01:27:45.847Z,99.99
2023-04-10T01:28:45.834Z,99.99
2023-04-10T01:29:45.822Z,99.99
2023-04-10T01:30:45.846Z,99.99
2023-04-10T01:31:45.809Z,99.99
2023-04-10T01:32:45.860Z,99.99
2023-04-10T01:33:45.798Z,99.99
2023-04-10T01:34:45.773Z,99.99
2023-04-10T01:35:45.829Z,99.99
2023-04-10T01:36:45.758Z,99.99
2023-04-10T01:37:45.775Z,99.99
2023-04-10T01:38:45.747Z,99.99
2023-04-10T01:39:45.736Z,99.99
2023-04-10T01:40:45.724Z,99.99
2023-04-10T01:41:45.713Z,99.99
2023-04-10T01:42:45.708Z,99.99
2023-04-10T01:43:45.694Z,99.99
2023-04-10T01:44:45.690Z,99.99
2023-04-10T01:45:45.700Z,99.99
2023-04-10T01:46:45.813Z,99.99
2023-04-10T01:47:45.703Z,99.99
2023-04-10T01:48:45.659Z,99.99
2023-04-10T01:49:45.649Z,99.99
2023-04-10T01:50:45.646Z,99.99
2023-04-10T01:51:45.631Z,99.99
2023-04-10T01:52:45.622Z,99.99
2023-04-10T01:53:45.643Z,99.99
2023-04-10T01:54:45.645Z,99.99
2023-04-10T01:55:45.600Z,99.99
2023-04-10T01:56:45.604Z,99.99
2023-04-10T01:57:45.581Z,99.99
2023-04-10T01:58:45.586Z,99.99
2023-04-10T01:59:45.565Z,99.99
2023-04-10T02:00:45.558Z,99.99
2023-04-10T02:01:45.573Z,99.99
2023-04-10T02:02:45.695Z,99.99
2023-04-10T02:03:45.632Z,99.99
2023-04-10T02:04:45.560Z,99.99
2023-04-10T02:05:45.515Z,99.99
2023-04-10T02:06:45.501Z,99.99
2023-04-10T02:07:45.506Z,99.99
2023-04-10T02:08:45.481Z,99.99
2023-04-10T02:09:45.474Z,99.99
2023-04-10T02:10:45.473Z,99.99
2023-04-10T02:11:45.459Z,99.99
2023-04-10T02:12:45.451Z,99.99
2023-04-10T02:13:45.442Z,99.99
2023-04-10T02:14:45.438Z,99.99
2023-04-10T02:15:45.468Z,99.99
2023-04-10T02:16:45.416Z,99.99
2023-04-10T02:17:45.461Z,99.99
2023-04-10T02:18:45.397Z,99.99
2023-04-10T02:19:45.391Z,99.99
2023-04-10T02:20:45.384Z,99.99
2023-04-10T02:21:45.380Z,99.99
2023-04-10T02:22:45.360Z,99.99
2023-04-10T02:23:45.354Z,99.99
2023-04-10T02:24:45.348Z,99.99
2023-04-10T02:25:45.345Z,99.99
2023-04-10T02:26:45.327Z,99.99
2023-04-10T02:27:45.321Z,99.99
2023-04-10T02:28:45.315Z,99.99
2023-04-10T02:29:45.310Z,99.99
2023-04-10T02:30:45.291Z,99.99
2023-04-10T02:31:45.348Z,99.99
2023-04-10T02:32:45.331Z,99.99
2023-04-10T02:33:45.264Z,99.99
2023-04-10T02:34:45.261Z,99.99
2023-04-10T02:35:45.278Z,99.99
2023-04-10T02:36:45.255Z,99.99
2023-04-10T02:37:45.235Z,99.99
2023-04-10T02:38:45.223Z,99.99
2023-04-10T02:39:45.216Z,99.99
2023-04-10T02:40:45.207Z,99.99
2023-04-10T02:41:45.197Z,99.99
2023-04-10T02:42:45.193Z,99.99
2023-04-10T02:43:45.188Z,99.99
2023-04-10T02:44:45.172Z,99.99
2023-04-10T02:45:45.163Z,99.99
2023-04-10T02:46:45.202Z,99.99
2023-04-10T02:47:45.213Z,99.99
2023-04-10T02:48:45.137Z,99.99
2023-04-10T02:49:45.127Z,99.99
2023-04-10T02:50:45.119Z,99.99
2023-04-10T02:51:45.113Z,99.99
2023-04-10T02:52:45.100Z,99.99
2023-04-10T02:53:45.091Z,99.99
2023-04-10T02:54:45.084Z,99.99
2023-04-10T02:55:45.077Z,99.99
2023-04-10T02:56:45.072Z,99.99
2023-04-10T02:57:45.065Z,99.99
2023-04-10T02:58:45.049Z,99.99
2023-04-10T02:59:45.042Z,99.99
2023-04-10T03:00:45.038Z,99.99
2023-04-10T03:01:45.116Z,99.99
2023-04-10T03:02:45.323Z,99.99
2023-04-10T03:03:45.102Z,99.99
2023-04-10T03:04:45.060Z,99.99
2023-04-10T03:05:44.997Z,99.99
2023-04-10T03:06:44.980Z,99.99
2023-04-10T03:07:44.971Z,99.99
2023-04-10T03:08:44.973Z,99.99
2023-04-10T03:09:44.973Z,99.99
2023-04-10T03:10:44.961Z,99.99
2023-04-10T03:11:44.936Z,99.99
2023-04-10T03:12:44.937Z,99.99
2023-04-10T03:13:44.934Z,99.99
2023-04-10T03:14:44.904Z,99.99
2023-04-10T03:15:44.936Z,99.99
2023-04-10T03:16:44.900Z,99.99
2023-04-10T03:17:44.951Z,99.99
2023-04-10T03:18:44.891Z,99.99
2023-04-10T03:19:44.881Z,99.99
2023-04-10T03:20:45.320Z,99.99
2023-04-10T03:21:44.850Z,99.99
2023-04-10T03:22:44.854Z,99.99
2023-04-10T03:23:44.831Z,99.99
2023-04-10T03:24:44.821Z,99.99
2023-04-10T03:25:44.823Z,99.99
2023-04-10T03:26:44.808Z,99.99
2023-04-10T03:27:44.817Z,99.99
2023-04-10T03:28:44.788Z,99.99
2023-04-10T03:29:44.783Z,99.99
2023-04-10T03:30:44.774Z,99.99
2023-04-10T03:31:44.882Z,99.99
2023-04-10T03:32:44.756Z,99.99
2023-04-10T03:33:44.866Z,99.99
2023-04-10T03:34:44.737Z,99.99
2023-04-10T03:35:44.739Z,99.99
2023-04-10T03:36:44.719Z,99.99
2023-04-10T03:37:44.716Z,99.99
2023-04-10T03:38:44.700Z,99.99
2023-04-10T03:39:44.700Z,99.99
2023-04-10T03:40:44.681Z,99.99
2023-04-10T03:41:44.671Z,99.99
2023-04-10T03:42:44.672Z,99.99
2023-04-10T03:43:44.652Z,99.99
2023-04-10T03:44:44.650Z,99.99
2023-04-10T03:45:44.640Z,99.99
2023-04-10T03:46:44.704Z,99.99
2023-04-10T03:47:44.656Z,99.99
2023-04-10T03:48:44.613Z,99.99
2023-04-10T03:49:44.604Z,99.99
2023-04-10T03:50:44.605Z,99.99
2023-04-10T03:51:44.606Z,99.99
2023-04-10T03:52:44.578Z,99.99
2023-04-10T03:53:44.566Z,99.99
2023-04-10T03:54:44.560Z,99.99
2023-04-10T03:55:44.547Z,99.99
2023-04-10T03:56:44.543Z,99.99
2023-04-10T03:57:44.534Z,99.99
2023-04-10T03:58:44.519Z,99.99
2023-04-10T03:59:44.514Z,99.99
2023-04-10T04:00:44.501Z,99.99
2023-04-10T04:01:44.628Z,99.99
2023-04-10T04:02:44.618Z,99.99
2023-04-10T04:03:44.608Z,99.99
2023-04-10T04:04:44.612Z,99.99
2023-04-10T04:05:44.457Z,99.99
2023-04-10T04:06:44.447Z,99.99
2023-04-10T04:07:44.455Z,99.99
2023-04-10T04:08:44.431Z,99.99
2023-04-10T04:09:44.440Z,99.99
2023-04-10T04:10:44.433Z,99.99
2023-04-10T04:11:44.406Z,99.99
2023-04-10T04:12:44.404Z,99.99
2023-04-10T04:13:44.377Z,99.99
2023-04-10T04:14:44.374Z,99.99
2023-04-10T04:15:44.370Z,99.99
2023-04-10T04:16:44.410Z,99.99
2023-04-10T04:17:44.361Z,99.99
2023-04-10T04:18:44.336Z,99.99
2023-04-10T04:19:44.331Z,99.99
2023-04-10T04:20:44.331Z,99.99
2023-04-10T04:21:44.306Z,99.99
2023-04-10T04:22:44.298Z,99.99
2023-04-10T04:23:44.313Z,99.99
2023-04-10T04:24:44.283Z,99.99
2023-04-10T04:25:44.271Z,99.99
2023-04-10T04:26:44.264Z,99.99
2023-04-10T04:27:44.265Z,99.99
2023-04-10T04:28:44.250Z,99.99
2023-04-10T04:29:44.229Z,99.99
2023-04-10T04:30:44.233Z,99.99
2023-04-10T04:31:44.261Z,99.99
2023-04-10T04:32:44.225Z,99.99
2023-04-10T04:33:44.206Z,99.99
2023-04-10T04:34:44.201Z,99.99
2023-04-10T04:35:44.207Z,99.99
2023-04-10T04:36:44.174Z,99.99
2023-04-10T04:37:44.176Z,99.99
2023-04-10T04:38:44.145Z,99.99
2023-04-10T04:39:44.147Z,99.99
2023-04-10T04:40:44.137Z,99.99
2023-04-10T04:41:44.128Z,99.99
2023-04-10T04:42:44.117Z,99.99
2023-04-10T04:43:44.107Z,99.99
2023-04-10T04:44:44.098Z,99.99
2023-04-10T04:45:44.105Z,99.99
2023-04-10T04:46:44.687Z,99.99
2023-04-10T04:47:44.101Z,99.99
2023-04-10T04:48:44.054Z,99.99
2023-04-10T04:49:44.058Z,99.99
2023-04-10T04:50:44.039Z,99.99
2023-04-10T04:51:44.030Z,99.99
2023-04-10T04:52:44.019Z,99.99
2023-04-10T04:53:44.015Z,99.99
2023-04-10T04:54:44.001Z,99.99
2023-04-10T04:55:43.995Z,99.99
2023-04-10T04:56:43.992Z,99.99
2023-04-10T04:57:43.976Z,99.99
2023-04-10T04:58:43.963Z,99.99
2023-04-10T04:59:44.006Z,99.99
2023-04-10T05:00:43.967Z,99.99
2023-04-10T05:01:44.000Z,99.99
2023-04-10T05:02:43.990Z,99.99
2023-04-10T05:03:44.016Z,99.99
2023-04-10T05:04:43.913Z,99.99
2023-04-10T05:05:43.897Z,99.99
2023-04-10T05:06:43.888Z,99.99
2023-04-10T05:07:43.873Z,99.99
2023-04-10T05:08:43.874Z,99.99
2023-04-10T05:09:43.861Z,99.99
2023-04-10T05:10:43.853Z,99.99
2023-04-10T05:11:43.839Z,99.99
2023-04-10T05:12:43.837Z,99.99
2023-04-10T05:13:43.823Z,99.99
2023-04-10T05:14:43.826Z,99.99
2023-04-10T05:15:43.822Z,99.99
2023-04-10T05:16:43.809Z,99.99
2023-04-10T05:17:43.863Z,99.99
2023-04-10T05:18:43.804Z,99.99
2023-04-10T05:19:43.765Z,99.99
2023-04-10T05:20:43.760Z,99.99
2023-04-10T05:21:43.751Z,99.99
2023-04-10T05:22:43.734Z,99.99
2023-04-10T05:23:43.724Z,99.99
2023-04-10T05:24:43.724Z,99.99
2023-04-10T05:25:43.721Z,99.99
2023-04-10T05:26:43.700Z,99.99
2023-04-10T05:27:43.691Z,99.99
2023-04-10T05:28:43.674Z,99.99
2023-04-10T05:29:43.685Z,99.99
2023-04-10T05:30:43.691Z,99.99
2023-04-10T05:31:43.716Z,99.99
2023-04-10T05:32:43.672Z,99.99
2023-04-10T05:33:43.635Z,99.99
2023-04-10T05:34:43.643Z,99.99
2023-04-10T05:35:43.634Z,99.99
2023-04-10T05:36:43.608Z,99.99
2023-04-10T05:37:43.591Z,99.99
2023-04-10T05:38:43.587Z,99.99
2023-04-10T05:39:43.577Z,99.99
2023-04-10T05:40:43.570Z,99.99
2023-04-10T05:41:43.570Z,99.99
2023-04-10T05:42:43.555Z,99.99
2023-04-10T05:43:43.549Z,99.99
2023-04-10T05:44:43.538Z,99.99
2023-04-10T05:45:43.526Z,99.99
2023-04-10T05:46:43.584Z,99.99
2023-04-10T05:47:43.557Z,99.99
2023-04-10T05:48:43.504Z,99.99
2023-04-10T05:49:43.511Z,99.99
2023-04-10T05:50:43.486Z,99.99
2023-04-10T05:51:43.492Z,99.99
2023-04-10T05:52:43.466Z,99.99
2023-04-10T05:53:43.463Z,99.99
2023-04-10T05:54:43.447Z,99.99
2023-04-10T05:55:43.436Z,99.99
2023-04-10T05:56:43.432Z,99.99
2023-04-10T05:57:43.438Z,99.99
2023-04-10T05:58:43.412Z,99.99
2023-04-10T05:59:43.402Z,99.99
2023-04-10T06:00:43.395Z,99.99
2023-04-10T06:01:43.422Z,99.99
2023-04-10T06:02:43.538Z,99.99
2023-04-10T06:03:43.499Z,99.99
2023-04-10T06:04:43.448Z,99.99
2023-04-10T06:05:43.347Z,99.99
2023-04-10T06:06:43.339Z,99.99
2023-04-10T06:07:43.326Z,99.99
2023-04-10T06:08:43.322Z,99.99
2023-04-10T06:09:43.312Z,99.99
2023-04-10T06:10:43.300Z,99.99
2023-04-10T06:11:43.295Z,99.99
2023-04-10T06:12:43.282Z,99.99
2023-04-10T06:13:43.276Z,99.99
2023-04-10T06:14:43.265Z,99.99
2023-04-10T06:15:43.281Z,99.99
2023-04-10T06:16:43.252Z,99.99
2023-04-10T06:17:43.301Z,99.99
2023-04-10T06:18:43.218Z,99.99
2023-04-10T06:19:43.329Z,99.99
2023-04-10T06:20:43.213Z,99.99
2023-04-10T06:21:43.218Z,99.99
2023-04-10T06:22:43.198Z,99.99
2023-04-10T06:23:43.187Z,99.99
2023-04-10T06:24:43.177Z,99.99
2023-04-10T06:25:43.169Z,99.99
2023-04-10T06:26:43.178Z,99.99
2023-04-10T06:27:43.153Z,99.99
2023-04-10T06:28:43.153Z,99.99
2023-04-10T06:29:43.138Z,99.99
2023-04-10T06:30:43.127Z,99.99
2023-04-10T06:31:43.176Z,99.99
2023-04-10T06:32:43.127Z,99.99
2023-04-10T06:33:43.103Z,99.99
2023-04-10T06:34:43.094Z,99.99
2023-04-10T06:35:43.101Z,99.99
2023-04-10T06:36:43.084Z,99.99
2023-04-10T06:37:43.069Z,99.99
2023-04-10T06:38:43.064Z,99.99
2023-04-10T06:39:43.050Z,99.99
2023-04-10T06:40:43.045Z,99.99
2023-04-10T06:41:43.044Z,99.99
2023-04-10T06:42:43.026Z,99.99
2023-04-10T06:43:43.019Z,99.99
2023-04-10T06:44:43.010Z,99.99
2023-04-10T06:45:43.009Z,99.99
2023-04-10T06:46:43.026Z,99.99
2023-04-10T06:47:43.044Z,99.99
2023-04-10T06:48:42.976Z,99.99
2023-04-10T06:49:42.966Z,99.99
2023-04-10T06:50:42.961Z,99.99
2023-04-10T06:51:42.952Z,99.99
2023-04-10T06:52:42.944Z,99.99
2023-04-10T06:53:42.934Z,99.99
2023-04-10T06:54:42.934Z,99.99
2023-04-10T06:55:42.920Z,99.99
2023-04-10T06:56:42.908Z,99.99
2023-04-10T06:57:42.915Z,99.99
2023-04-10T06:58:42.902Z,99.99
2023-04-10T06:59:42.969Z,99.99
2023-04-10T07:00:42.902Z,99.99
2023-04-10T07:01:42.906Z,99.99
2023-04-10T07:02:42.903Z,99.99
2023-04-10T07:03:42.894Z,99.99
2023-04-10T07:04:42.847Z,99.99
2023-04-10T07:05:42.836Z,99.99
2023-04-10T07:06:42.830Z,99.99
2023-04-10T07:07:42.825Z,99.99
2023-04-10T07:08:42.810Z,99.99
2023-04-10T07:09:42.805Z,99.99
2023-04-10T07:10:42.800Z,99.99
2023-04-10T07:11:42.784Z,99.99
2023-04-10T07:12:42.776Z,99.99
2023-04-10T07:13:42.772Z,99.99
2023-04-10T07:14:42.760Z,99.99
2023-04-10T07:15:42.754Z,99.99
2023-04-10T07:16:42.815Z,99.99
2023-04-10T07:17:42.786Z,99.99
2023-04-10T07:18:42.750Z,99.99
2023-04-10T07:19:42.720Z,99.99
2023-04-10T07:20:42.715Z,99.99
2023-04-10T07:21:42.721Z,99.99
2023-04-10T07:22:42.698Z,99.99
2023-04-10T07:23:42.686Z,99.99
2023-04-10T07:24:42.684Z,99.99
2023-04-10T07:25:42.676Z,99.99
2023-04-10T07:26:42.668Z,99.27
2023-04-10T07:27:42.654Z,99.32
2023-04-10T07:28:42.647Z,99.99
2023-04-10T07:29:42.646Z,99.60
2023-04-10T07:30:42.636Z,98.75
2023-04-10T07:31:42.711Z,98.75
2023-04-10T07:32:42.772Z,98.27
2023-04-10T07:33:42.623Z,97.99
2023-04-10T07:34:42.617Z,96.84
2023-04-10T07:35:42.609Z,96.98
2023-04-10T07:36:43.578Z,96.98
2023-04-10T07:37:42.576Z,96.41
2023-04-10T07:38:42.569Z,96.41
2023-04-10T07:39:42.560Z,96.32
2023-04-10T07:40:42.551Z,95.56
2023-04-10T07:41:42.552Z,94.32
2023-04-10T07:42:42.538Z,93.93
2023-04-10T07:43:42.526Z,94.98
2023-04-10T07:44:42.516Z,94.41
2023-04-10T07:45:42.563Z,94.12
2023-04-10T07:46:42.510Z,94.03
2023-04-10T07:47:42.527Z,92.88
2023-04-10T07:48:42.486Z,92.74
2023-04-10T07:49:42.479Z,92.74
2023-04-10T07:50:42.473Z,92.74
2023-04-10T07:51:42.489Z,92.65
2023-04-10T07:52:42.480Z,92.36
2023-04-10T07:53:42.456Z,92.07
2023-04-10T07:54:42.441Z,91.31
2023-04-10T07:55:42.444Z,91.12
2023-04-10T07:56:42.430Z,92.07
2023-04-10T07:57:42.427Z,91.60
2023-04-10T07:58:42.414Z,91.12
2023-04-10T07:59:42.415Z,91.31
2023-04-10T08:00:42.411Z,91.21
2023-04-10T08:01:42.404Z,91.98
2023-04-10T08:02:42.476Z,92.07
2023-04-10T08:03:42.477Z,91.98
2023-04-10T08:04:42.423Z,91.21
2023-04-10T08:05:42.362Z,90.55
2023-04-10T08:06:42.358Z,90.64
2023-04-10T08:07:42.346Z,90.93
2023-04-10T08:08:42.349Z,90.64
2023-04-10T08:09:42.338Z,90.55
2023-04-10T08:10:42.319Z,89.50
2023-04-10T08:11:42.316Z,90.07
2023-04-10T08:12:42.318Z,90.26
2023-04-10T08:13:42.302Z,89.88
2023-04-10T08:14:42.295Z,90.73
2023-04-10T08:15:42.288Z,91.45
2023-04-10T08:16:42.329Z,90.59
2023-04-10T08:17:42.322Z,90.21
2023-04-10T08:18:42.265Z,89.64
2023-04-10T08:19:42.266Z,90.40
2023-04-10T08:20:42.249Z,89.45
2023-04-10T08:21:42.246Z,89.83
2023-04-10T08:22:42.236Z,89.35
2023-04-10T08:23:42.251Z,90.40
2023-04-10T08:24:42.224Z,89.83
2023-04-10T08:25:42.209Z,89.73
2023-04-10T08:26:42.210Z,89.92
2023-04-10T08:27:42.200Z,89.45
2023-04-10T08:28:42.194Z,89.35
2023-04-10T08:29:42.184Z,88.78
2023-04-10T08:30:42.200Z,88.11
2023-04-10T08:31:42.170Z,88.01
2023-04-10T08:32:42.216Z,88.68
2023-04-10T08:33:42.150Z,88.97
2023-04-10T08:34:42.154Z,88.40
2023-04-10T08:35:42.158Z,88.30
2023-04-10T08:36:42.143Z,88.30
2023-04-10T08:37:43.121Z,88.68
2023-04-10T08:38:42.126Z,88.92
2023-04-10T08:39:42.121Z,88.25
2023-04-10T08:40:42.115Z,88.73
2023-04-10T08:41:42.103Z,87.20
2023-04-10T08:42:42.095Z,87.01
2023-04-10T08:43:42.091Z,87.68
2023-04-10T08:44:42.083Z,87.39
2023-04-10T08:45:42.127Z,86.82
2023-04-10T08:46:42.085Z,86.91
2023-04-10T08:47:42.104Z,86.63
2023-04-10T08:48:42.082Z,86.53
2023-04-10T08:49:42.056Z,85.77
2023-04-10T08:50:42.070Z,87.15
2023-04-10T08:51:42.037Z,86.86
2023-04-10T08:52:42.031Z,87.24
2023-04-10T08:53:42.028Z,86.57
2023-04-10T08:54:42.016Z,85.81
2023-04-10T08:55:42.043Z,85.52
2023-04-10T08:56:42.012Z,86.67
2023-04-10T08:57:45.316Z,86.76
2023-04-10T08:58:41.999Z,86.00
2023-04-10T08:59:41.987Z,86.19
2023-04-10T09:00:41.982Z,85.81
2023-04-10T09:01:42.027Z,85.14
2023-04-10T09:02:42.844Z,85.42
2023-04-10T09:03:42.097Z,85.81
2023-04-10T09:04:42.120Z,85.81
2023-04-10T09:05:41.952Z,85.81
2023-04-10T09:06:41.939Z,85.81
2023-04-10T09:07:41.946Z,85.81
2023-04-10T09:08:41.929Z,85.62
2023-04-10T09:09:41.928Z,85.05
2023-04-10T09:10:41.925Z,85.24
2023-04-10T09:11:41.918Z,85.33
2023-04-10T09:12:41.901Z,85.90
2023-04-10T09:13:41.907Z,85.81
2023-04-10T09:14:41.938Z,85.14
2023-04-10T09:15:41.901Z,85.90
2023-04-10T09:16:41.874Z,86.00
2023-04-10T09:17:41.939Z,85.90
2023-04-10T09:18:41.868Z,85.62
2023-04-10T09:19:41.853Z,85.47
2023-04-10T09:20:41.852Z,86.04
2023-04-10T09:21:41.851Z,85.18
2023-04-10T09:22:41.839Z,84.61
2023-04-10T09:23:41.844Z,84.61
2023-04-10T09:24:41.834Z,84.89
2023-04-10T09:25:41.815Z,83.84
2023-04-10T09:26:41.806Z,84.13
2023-04-10T09:27:41.808Z,83.75
2023-04-10T09:28:41.796Z,83.08
2023-04-10T09:29:41.790Z,81.55
2023-04-10T09:30:41.810Z,82.35
2023-04-10T09:31:41.832Z,82.35
2023-04-10T09:32:41.910Z,82.17
2023-04-10T09:33:41.770Z,82.17
2023-04-10T09:34:41.757Z,82.93
2023-04-10T09:35:41.763Z,82.54
2023-04-10T09:36:41.822Z,83.60
2023-04-10T09:37:41.744Z,82.64
2023-04-10T09:38:41.767Z,82.17
2023-04-10T09:39:41.728Z,81.40
2023-04-10T09:40:41.746Z,81.49
2023-04-10T09:41:41.729Z,81.11
2023-04-10T09:42:41.720Z,80.06
2023-04-10T09:43:41.718Z,80.48
2023-04-10T09:44:41.714Z,79.72
2023-04-10T09:45:41.703Z,80.29
2023-04-10T09:46:41.734Z,79.52
2023-04-10T09:47:41.709Z,80.29
2023-04-10T09:48:41.685Z,80.43
2023-04-10T09:49:41.680Z,81.29
2023-04-10T09:50:41.692Z,80.33
2023-04-10T09:51:41.668Z,79.75
2023-04-10T09:52:41.674Z,79.57
2023-04-10T09:53:41.671Z,79.85
2023-04-10T09:54:41.652Z,79.47
2023-04-10T09:55:41.657Z,78.03
2023-04-10T09:56:41.644Z,77.36
2023-04-10T09:57:41.641Z,78.42
2023-04-10T09:58:41.650Z,78.61
2023-04-10T09:59:43.048Z,78.42
2023-04-10T10:00:41.642Z,78.42
2023-04-10T10:01:41.696Z,77.65
2023-04-10T10:02:41.711Z,78.03
2023-04-10T10:03:41.636Z,77.40
2023-04-10T10:04:41.667Z,77.97
2023-04-10T10:05:41.601Z,78.07
2023-04-10T10:06:41.600Z,78.36
2023-04-10T10:07:41.605Z,77.15
2023-04-10T10:08:41.588Z,76.39
2023-04-10T10:09:41.595Z,77.92
2023-04-10T10:10:41.594Z,77.06
2023-04-10T10:11:41.577Z,76.54
2023-04-10T10:12:41.576Z,76.77
2023-04-10T10:13:41.604Z,75.96
2023-04-10T10:14:41.571Z,76.73
2023-04-10T10:15:41.571Z,76.35
2023-04-10T10:16:41.694Z,75.39
2023-04-10T10:17:41.579Z,75.48
2023-04-10T10:18:41.558Z,76.29
2023-04-10T10:19:41.567Z,77.15
2023-04-10T10:20:41.542Z,76.29
2023-04-10T10:21:41.541Z,75.52
2023-04-10T10:22:41.532Z,74.66
2023-04-10T10:23:41.534Z,74.85
2023-04-10T10:24:41.535Z,75.71
2023-04-10T10:25:41.532Z,75.23
2023-04-10T10:26:41.527Z,74.98
2023-04-10T10:27:41.519Z,75.37
2023-04-10T10:28:41.528Z,75.46
2023-04-10T10:29:41.516Z,74.31
2023-04-10T10:30:41.512Z,74.79
2023-04-10T10:31:41.550Z,74.51
2023-04-10T10:32:41.566Z,73.61
2023-04-10T10:33:41.531Z,73.61
2023-04-10T10:34:41.517Z,74.47
2023-04-10T10:35:41.518Z,74.66
2023-04-10T10:36:41.607Z,74.98
2023-04-10T10:37:41.496Z,73.97
2023-04-10T10:38:41.535Z,74.64
2023-04-10T10:39:41.493Z,74.06
2023-04-10T10:40:41.516Z,73.14
2023-04-10T10:41:41.487Z,72.05
2023-04-10T10:42:41.476Z,73.00
2023-04-10T10:43:41.470Z,72.43
2023-04-10T10:44:41.476Z,73.81
2023-04-10T10:45:41.525Z,73.72
2023-04-10T10:46:41.464Z,73.14
2023-04-10T10:47:41.525Z,71.03
2023-04-10T10:48:41.464Z,72.28
2023-04-10T10:49:41.453Z,71.98
2023-04-10T10:50:41.456Z,72.28
2023-04-10T10:51:41.448Z,71.66
2023-04-10T10:52:41.448Z,71.66
2023-04-10T10:53:41.469Z,72.18
2023-04-10T10:54:53.609Z,72.08
2023-04-10T10:55:41.442Z,71.31
2023-04-10T10:56:41.441Z,71.22
2023-04-10T10:57:41.440Z,70.49
2023-04-10T10:58:41.435Z,69.97
2023-04-10T10:59:41.427Z,70.58
2023-04-10T11:00:41.429Z,70.87
2023-04-10T11:01:41.621Z,70.10
2023-04-10T11:02:41.540Z,69.87
2023-04-10T11:03:41.495Z,71.16
2023-04-10T11:04:41.422Z,70.78
2023-04-10T11:05:41.419Z,70.87
2023-04-10T11:06:42.847Z,70.10
2023-04-10T11:07:41.415Z,70.17
2023-04-10T11:08:41.414Z,69.97
2023-04-10T11:09:41.413Z,70.26
2023-04-10T11:10:41.406Z,70.07
2023-04-10T11:11:41.406Z,70.74
2023-04-10T11:12:41.410Z,70.68
2023-04-10T11:13:41.424Z,70.87
2023-04-10T11:14:41.401Z,70.78
2023-04-10T11:15:41.403Z,70.26
2023-04-10T11:16:41.445Z,69.78
2023-04-10T11:17:41.457Z,70.26
2023-04-10T11:18:41.391Z,70.55
2023-04-10T11:19:41.387Z,70.45
2023-04-10T11:20:41.387Z,70.07
2023-04-10T11:21:41.382Z,69.68
2023-04-10T11:22:41.383Z,69.49
2023-04-10T11:23:41.376Z,70.84
2023-04-10T11:24:41.376Z,69.40
2023-04-10T11:25:41.374Z,69.49
2023-04-10T11:26:41.393Z,69.97
2023-04-10T11:27:41.370Z,69.78
2023-04-10T11:28:41.376Z,68.91
2023-04-10T11:29:41.359Z,69.01
2023-04-10T11:30:41.356Z,68.91
2023-04-10T11:31:41.372Z,68.24
2023-04-10T11:32:41.405Z,68.53
2023-04-10T11:33:41.345Z,68.76
2023-04-10T11:34:41.356Z,68.15
2023-04-10T11:35:41.381Z,69.43
2023-04-10T11:36:41.337Z,67.80
2023-04-10T11:37:41.335Z,67.70
2023-04-10T11:38:41.323Z,69.30
2023-04-10T11:39:41.324Z,69.14
2023-04-10T11:40:41.327Z,68.24
2023-04-10T11:41:41.318Z,68.24
2023-04-10T11:42:41.310Z,69.20
2023-04-10T11:43:41.319Z,69.01
2023-04-10T11:44:41.310Z,69.30
2023-04-10T11:45:41.317Z,69.05
2023-04-10T11:46:41.298Z,68.95
2023-04-10T11:47:41.307Z,68.95
2023-04-10T11:48:41.298Z,68.66
2023-04-10T11:49:41.311Z,68.85
2023-04-10T11:50:41.290Z,68.57
2023-04-10T11:51:41.283Z,67.76
2023-04-10T11:52:41.300Z,68.53
2023-04-10T11:53:41.324Z,67.96
2023-04-10T11:54:41.271Z,67.96
2023-04-10T11:55:41.275Z,68.44
2023-04-10T11:56:41.264Z,67.86
2023-04-10T11:57:41.267Z,67.86
2023-04-10T11:58:41.253Z,67.86
2023-04-10T11:59:41.251Z,68.15
2023-04-10T12:00:41.253Z,69.78
2023-04-10T12:01:42.916Z,70.26
2023-04-10T12:02:41.339Z,68.91
2023-04-10T12:03:41.415Z,67.29
2023-04-10T12:04:41.530Z,67.47
2023-04-10T12:05:41.234Z,67.76
2023-04-10T12:06:41.231Z,68.34
2023-04-10T12:07:41.223Z,68.85
2023-04-10T12:08:41.228Z,68.24
2023-04-10T12:09:41.222Z,66.42
2023-04-10T12:10:41.207Z,66.61
2023-04-10T12:11:41.244Z,67.09
2023-04-10T12:12:41.201Z,67.47
2023-04-10T12:13:41.190Z,67.47
2023-04-10T12:14:41.189Z,68.24
2023-04-10T12:15:41.198Z,68.24
2023-04-10T12:16:41.181Z,67.76
2023-04-10T12:17:41.217Z,67.96
2023-04-10T12:18:41.177Z,67.47
2023-04-10T12:19:41.167Z,67.47
2023-04-10T12:20:41.160Z,67.86
2023-04-10T12:21:41.187Z,67.86
2023-04-10T12:22:41.162Z,67.09
2023-04-10T12:23:41.160Z,68.24
2023-04-10T12:24:41.149Z,68.53
2023-04-10T12:25:41.150Z,67.47
2023-04-10T12:26:41.143Z,66.74
2023-04-10T12:27:41.144Z,67.13
2023-04-10T12:28:41.143Z,66.03
2023-04-10T12:29:41.129Z,67.09
2023-04-10T12:30:41.130Z,66.03
2023-04-10T12:31:41.157Z,66.61
2023-04-10T12:32:41.180Z,65.94
2023-04-10T12:33:41.123Z,64.50
2023-04-10T12:34:41.122Z,65.56
2023-04-10T12:35:41.165Z,64.89
2023-04-10T12:36:41.105Z,65.08
2023-04-10T12:37:41.105Z,65.75
2023-04-10T12:38:41.111Z,65.17
2023-04-10T12:39:41.099Z,65.40
2023-04-10T12:40:41.092Z,65.49
2023-04-10T12:41:41.095Z,65.49
2023-04-10T12:42:41.087Z,64.63
2023-04-10T12:43:41.081Z,64.34
2023-04-10T12:44:41.084Z,65.20
2023-04-10T12:45:41.081Z,65.53
2023-04-10T12:46:41.142Z,65.33
2023-04-10T12:47:41.083Z,64.85
2023-04-10T12:48:41.069Z,65.81
2023-04-10T12:49:41.065Z,66.10
2023-04-10T12:50:41.054Z,64.66
2023-04-10T12:51:41.051Z,64.56
2023-04-10T12:52:41.049Z,63.70